Time;durP1;ratioP1;P1;durP2;ratioP2;P2;SDS_P1;SDS_P2;PMS_P1;PMS_P2;Temp;Humidity;BMP_temperature;BMP_pressure;BME280_temperature;BME280_humidity;BME280_pressure;Samples;Min_cycle;Max_cycle;Signal;HPM_P1;HPM_P2
2023/06/06 00:01:56;;;;;;;7.55;4.65;;;14.30;98.60;;;;;;5072920;28;20035;-83
2023/06/06 00:04:22;;;;;;;8.73;5.38;;;14.30;98.70;;;;;;5062720;28;20066;-82
2023/06/06 00:06:47;;;;;;;7.38;4.47;;;14.30;98.90;;;;;;5072141;28;20040;-83
2023/06/06 00:09:13;;;;;;;7.63;5.22;;;14.20;98.90;;;;;;5062163;28;20056;-83
2023/06/06 00:11:44;;;;;;;7.20;4.28;;;14.20;99.00;;;;;;5073952;28;20122;-83
2023/06/06 00:14:12;;;;;;;10.13;5.40;;;14.20;99.00;;;;;;5072133;28;20031;-82
2023/06/06 00:16:37;;;;;;;8.65;4.85;;;14.10;99.20;;;;;;5074725;28;20028;-83
2023/06/06 00:19:03;;;;;;;9.23;5.45;;;14.10;99.20;;;;;;5065095;28;20817;-83
2023/06/06 00:21:32;;;;;;;8.30;5.60;;;14.00;99.30;;;;;;5070832;28;20028;-82
2023/06/06 00:23:59;;;;;;;7.30;4.35;;;14.00;99.30;;;;;;5073354;28;20051;-83
2023/06/06 00:26:26;;;;;;;7.25;4.43;;;13.90;99.40;;;;;;5063545;28;20028;-83
2023/06/06 00:28:51;;;;;;;6.95;4.13;;;13.90;99.40;;;;;;5056838;28;20028;-82
2023/06/06 00:31:17;;;;;;;7.13;4.55;;;13.90;99.50;;;;;;5074565;28;20027;-83
2023/06/06 00:33:42;;;;;;;6.20;4.10;;;13.80;99.60;;;;;;5072905;28;20028;-83
2023/06/06 00:36:08;;;;;;;7.07;4.95;;;13.80;99.70;;;;;;5073209;28;20039;-83
2023/06/06 00:38:34;;;;;;;6.95;4.55;;;13.80;99.90;;;;;;5058439;28;20414;-83
2023/06/06 00:40:59;;;;;;;6.53;4.60;;;13.70;99.90;;;;;;5072619;28;20107;-83
2023/06/06 00:43:25;;;;;;;9.93;4.88;;;13.60;99.90;;;;;;5073534;28;20034;-83
2023/06/06 00:45:51;;;;;;;7.25;5.20;;;13.60;99.90;;;;;;5073538;28;20028;-83
2023/06/06 00:48:18;;;;;;;7.93;4.57;;;13.60;99.90;;;;;;5072389;28;20032;-83
2023/06/06 00:50:44;;;;;;;7.88;4.95;;;13.60;99.90;;;;;;5071946;28;20067;-83
2023/06/06 00:53:10;;;;;;;11.30;5.45;;;13.50;99.90;;;;;;5072003;28;20079;-83
2023/06/06 00:55:37;;;;;;;6.68;4.32;;;13.50;99.90;;;;;;5071934;28;20024;-84
2023/06/06 00:58:04;;;;;;;7.80;4.95;;;13.40;99.90;;;;;;5056974;28;20073;-83
2023/06/06 01:00:32;;;;;;;7.97;4.82;;;13.40;99.90;;;;;;5064333;28;20044;-84
2023/06/06 01:03:03;;;;;;;7.53;4.80;;;13.30;99.90;;;;;;5073073;28;20031;-84
2023/06/06 01:05:29;;;;;;;8.82;5.43;;;13.30;99.90;;;;;;5072129;28;20032;-83
2023/06/06 01:07:56;;;;;;;8.70;5.75;;;13.30;99.90;;;;;;5062382;28;20032;-82
2023/06/06 01:10:22;;;;;;;9.50;5.43;;;13.30;99.90;;;;;;5056686;28;20028;-83
2023/06/06 01:12:55;;;;;;;7.55;4.90;;;13.20;99.90;;;;;;5073641;28;20043;-83
2023/06/06 01:15:45;;;;;;;7.57;5.10;;;13.20;99.90;;;;;;5048551;28;20028;-82
2023/06/06 01:18:12;;;;;;;7.03;4.97;;;13.20;99.90;;;;;;5058125;28;20038;-82
2023/06/06 01:20:41;;;;;;;8.90;5.35;;;13.10;99.90;;;;;;5057020;28;20581;-82
2023/06/06 01:23:10;;;;;;;7.75;5.63;;;13.10;99.90;;;;;;5064011;28;20158;-82
2023/06/06 01:25:37;;;;;;;8.40;5.03;;;13.10;99.90;;;;;;5061543;28;20020;-82
2023/06/06 01:28:04;;;;;;;10.20;5.30;;;13.10;99.90;;;;;;5064800;28;20449;-82
2023/06/06 01:30:32;;;;;;;7.18;4.70;;;13.00;99.90;;;;;;5072633;28;20110;-82
2023/06/06 01:33:31;;;;;;;7.72;4.57;;;13.00;99.90;;;;;;5058998;28;20546;-82
2023/06/06 01:36:28;;;;;;;6.75;4.75;;;13.00;99.90;;;;;;5060026;28;20028;-82
2023/06/06 01:38:59;;;;;;;8.13;4.95;;;12.90;99.90;;;;;;5075576;28;20093;-82
2023/06/06 01:41:29;;;;;;;6.35;4.70;;;12.90;99.90;;;;;;5059544;28;20028;-82
2023/06/06 01:43:57;;;;;;;6.95;4.53;;;12.90;99.90;;;;;;5058764;28;20033;-81
2023/06/06 01:46:25;;;;;;;6.97;4.75;;;12.90;99.90;;;;;;5077623;28;20553;-81
2023/06/06 01:48:52;;;;;;;7.43;4.80;;;12.80;99.90;;;;;;5060574;28;20028;-81
2023/06/06 01:51:18;;;;;;;8.40;4.65;;;12.80;99.90;;;;;;5068886;28;20024;-82
2023/06/06 01:53:44;;;;;;;6.43;4.50;;;12.70;99.90;;;;;;5064309;28;20040;-81
2023/06/06 01:56:13;;;;;;;7.32;4.85;;;12.70;99.90;;;;;;5060531;28;20048;-81
2023/06/06 01:58:42;;;;;;;7.32;5.18;;;12.70;99.90;;;;;;5074105;28;20360;-81
2023/06/06 02:01:08;;;;;;;7.13;4.50;;;12.70;99.90;;;;;;5076543;28;20024;-82
2023/06/06 02:03:34;;;;;;;7.40;4.22;;;12.70;99.90;;;;;;5065192;28;20046;-82
2023/06/06 02:06:01;;;;;;;6.68;5.10;;;12.60;99.90;;;;;;5058322;28;20116;-81
2023/06/06 02:08:27;;;;;;;7.47;4.40;;;12.70;99.90;;;;;;5058627;28;20115;-81
2023/06/06 02:10:53;;;;;;;7.88;5.00;;;12.70;99.90;;;;;;5075176;28;20495;-82
2023/06/06 02:13:19;;;;;;;8.55;4.97;;;12.60;99.90;;;;;;5065631;28;20020;-82
2023/06/06 02:15:44;;;;;;;6.63;4.72;;;12.60;99.90;;;;;;5065354;28;20028;-82
2023/06/06 02:18:10;;;;;;;8.38;5.40;;;12.60;99.90;;;;;;5076436;28;20035;-81
2023/06/06 02:20:36;;;;;;;8.02;5.55;;;12.50;99.90;;;;;;5058608;28;20020;-82
2023/06/06 02:23:01;;;;;;;7.82;5.18;;;12.50;99.90;;;;;;5074082;28;20052;-82
2023/06/06 02:25:27;;;;;;;8.80;5.15;;;12.50;99.90;;;;;;5058205;28;20136;-82
2023/06/06 02:27:53;;;;;;;8.27;5.00;;;12.40;99.90;;;;;;5062511;28;20051;-81
2023/06/06 02:30:19;;;;;;;7.10;4.85;;;12.40;99.90;;;;;;5060920;28;20549;-81
2023/06/06 02:32:46;;;;;;;9.32;5.03;;;12.40;99.90;;;;;;5076665;28;20028;-83
2023/06/06 02:35:12;;;;;;;8.13;4.95;;;12.30;99.90;;;;;;5066174;28;20162;-81
2023/06/06 02:37:38;;;;;;;6.53;4.70;;;12.30;99.90;;;;;;5074762;28;20048;-82
2023/06/06 02:40:08;;;;;;;6.82;4.40;;;12.30;99.90;;;;;;5059215;28;20043;-82
2023/06/06 02:42:35;;;;;;;8.43;5.25;;;12.30;99.90;;;;;;5064963;28;20600;-81
2023/06/06 02:45:01;;;;;;;6.18;4.45;;;12.30;99.90;;;;;;5073328;28;20100;-82
2023/06/06 02:47:26;;;;;;;7.80;5.00;;;12.30;99.90;;;;;;5076243;28;20028;-83
2023/06/06 02:49:52;;;;;;;7.95;4.93;;;12.20;99.90;;;;;;5072382;28;20032;-82
2023/06/06 02:52:17;;;;;;;8.07;5.03;;;12.20;99.90;;;;;;5074276;28;20505;-81
2023/06/06 02:54:43;;;;;;;7.95;4.95;;;12.20;99.90;;;;;;5062983;28;20032;-82
2023/06/06 02:57:08;;;;;;;7.05;4.95;;;12.20;99.90;;;;;;5074448;28;20056;-82
2023/06/06 02:59:35;;;;;;;7.47;5.43;;;12.20;99.90;;;;;;5063923;28;20036;-82
2023/06/06 03:02:01;;;;;;;8.63;4.85;;;12.10;99.90;;;;;;5059738;28;20035;-82
2023/06/06 03:04:26;;;;;;;7.85;5.30;;;12.10;99.90;;;;;;5064317;28;20024;-81
2023/06/06 03:06:52;;;;;;;7.93;5.30;;;12.10;99.90;;;;;;5072382;28;20374;-82
2023/06/06 03:09:19;;;;;;;8.27;5.28;;;12.10;99.90;;;;;;5074536;28;20028;-82
2023/06/06 03:11:44;;;;;;;8.63;5.38;;;12.10;99.90;;;;;;5058500;28;20117;-81
2023/06/06 03:14:11;;;;;;;7.78;5.20;;;12.10;99.90;;;;;;5064645;28;20091;-81
2023/06/06 03:16:36;;;;;;;8.30;5.43;;;12.00;99.90;;;;;;5075426;28;20100;-82
2023/06/06 03:19:03;;;;;;;9.32;5.53;;;12.00;99.90;;;;;;5074052;28;20030;-82
2023/06/06 03:21:29;;;;;;;8.60;4.97;;;12.00;99.90;;;;;;5058644;28;20021;-82
2023/06/06 03:23:55;;;;;;;10.13;6.03;;;12.00;99.90;;;;;;5073011;28;20085;-82
2023/06/06 03:26:20;;;;;;;7.72;4.97;;;12.00;99.90;;;;;;5063702;28;20035;-82
2023/06/06 03:28:46;;;;;;;7.97;5.20;;;12.00;99.90;;;;;;5057313;28;20035;-82
2023/06/06 03:31:12;;;;;;;7.72;4.88;;;12.00;99.90;;;;;;5059424;28;20035;-82
2023/06/06 03:33:38;;;;;;;7.35;4.57;;;12.00;99.90;;;;;;5064262;28;20388;-83
2023/06/06 03:36:06;;;;;;;8.38;5.00;;;11.90;99.90;;;;;;5057182;28;20024;-83
2023/06/06 03:38:31;;;;;;;8.38;5.15;;;11.90;99.90;;;;;;5073884;28;20109;-82
2023/06/06 03:40:57;;;;;;;8.88;5.22;;;11.90;99.90;;;;;;5057806;28;20032;-83
2023/06/06 03:43:22;;;;;;;8.02;4.88;;;12.00;99.90;;;;;;5073386;28;20036;-81
2023/06/06 03:45:48;;;;;;;7.18;4.63;;;11.90;99.90;;;;;;5059613;28;20031;-83
2023/06/06 03:48:14;;;;;;;8.93;4.88;;;11.90;99.90;;;;;;5062908;28;20020;-83
2023/06/06 03:50:40;;;;;;;6.50;4.10;;;11.90;99.90;;;;;;5073063;28;20036;-83
2023/06/06 03:53:05;;;;;;;7.80;4.57;;;11.90;99.90;;;;;;5057890;28;20341;-84
2023/06/06 03:55:33;;;;;;;9.75;5.95;;;11.90;99.90;;;;;;5057981;28;21193;-82
2023/06/06 03:57:58;;;;;;;7.68;4.75;;;12.00;99.90;;;;;;5062751;28;20457;-83
2023/06/06 04:00:24;;;;;;;9.45;5.63;;;11.90;99.90;;;;;;5074121;28;20039;-83
2023/06/06 04:02:51;;;;;;;7.70;4.90;;;11.90;99.90;;;;;;5071801;28;20028;-83
2023/06/06 04:05:16;;;;;;;8.45;5.13;;;11.90;99.90;;;;;;5055550;28;20043;-83
2023/06/06 04:07:42;;;;;;;6.68;4.60;;;11.80;99.90;;;;;;5061901;28;20020;-83
2023/06/06 04:10:08;;;;;;;6.70;4.43;;;11.80;99.90;;;;;;5055123;28;20485;-82
2023/06/06 04:12:34;;;;;;;9.20;4.38;;;11.80;99.90;;;;;;5073124;28;20142;-83
2023/06/06 04:15:00;;;;;;;10.18;4.97;;;11.70;99.90;;;;;;5062514;28;20543;-83
2023/06/06 04:17:26;;;;;;;7.78;5.43;;;11.80;99.90;;;;;;5061029;28;20043;-84
2023/06/06 04:19:52;;;;;;;6.90;4.32;;;11.70;99.90;;;;;;5055212;28;20616;-84
2023/06/06 04:22:20;;;;;;;8.07;5.00;;;11.80;99.90;;;;;;5061041;28;20058;-82
2023/06/06 04:24:46;;;;;;;8.95;5.00;;;11.80;99.90;;;;;;5072834;28;20470;-82
2023/06/06 04:27:12;;;;;;;7.35;5.15;;;11.80;99.90;;;;;;5056561;28;20036;-82
2023/06/06 04:29:40;;;;;;;6.60;4.45;;;11.80;99.90;;;;;;5062079;28;20610;-83
2023/06/06 04:32:08;;;;;;;8.63;5.22;;;11.80;99.90;;;;;;5056673;28;20474;-83
2023/06/06 04:34:39;;;;;;;7.78;4.85;;;11.80;99.90;;;;;;5072631;28;20486;-83
2023/06/06 04:37:05;;;;;;;7.97;4.50;;;11.90;99.90;;;;;;5062117;28;20036;-82
2023/06/06 04:39:32;;;;;;;6.75;4.47;;;11.90;99.90;;;;;;5064914;28;20028;-83
2023/06/06 04:41:58;;;;;;;7.72;4.25;;;12.00;99.90;;;;;;5062128;28;20028;-83
2023/06/06 04:44:25;;;;;;;6.43;4.28;;;12.00;99.90;;;;;;5073200;28;20158;-83
2023/06/06 04:46:52;;;;;;;7.05;4.80;;;12.10;99.90;;;;;;5057621;28;20043;-84
2023/06/06 04:49:20;;;;;;;7.32;4.55;;;12.10;99.90;;;;;;5072538;28;20047;-84
2023/06/06 04:51:46;;;;;;;7.45;4.82;;;12.20;99.90;;;;;;5072358;28;20067;-82
2023/06/06 04:54:12;;;;;;;7.20;4.18;;;12.20;99.90;;;;;;5071388;28;20111;-84
2023/06/06 04:56:40;;;;;;;8.82;5.28;;;12.20;99.90;;;;;;5070492;28;20040;-84
2023/06/06 04:59:06;;;;;;;7.22;4.70;;;12.20;99.90;;;;;;5054731;28;20159;-84
2023/06/06 05:01:37;;;;;;;6.95;4.15;;;12.30;99.90;;;;;;5058336;28;20031;-83
2023/06/06 05:04:03;;;;;;;6.25;3.65;;;12.30;99.90;;;;;;5068462;28;20067;-84
2023/06/06 05:06:31;;;;;;;6.88;4.18;;;12.40;99.90;;;;;;5070741;28;20468;-84
2023/06/06 05:09:07;;;;;;;7.28;4.63;;;12.50;99.90;;;;;;5073831;28;20139;-84
2023/06/06 05:11:36;;;;;;;6.65;4.25;;;12.50;99.90;;;;;;5072791;28;20504;-83
2023/06/06 05:14:02;;;;;;;6.55;3.42;;;12.60;99.90;;;;;;5075943;28;20492;-84
2023/06/06 05:16:28;;;;;;;6.57;4.10;;;12.70;99.90;;;;;;5063116;28;20032;-84
2023/06/06 05:18:54;;;;;;;8.20;4.53;;;12.70;99.90;;;;;;5074458;28;20698;-84
2023/06/06 05:21:20;;;;;;;9.43;5.10;;;12.80;99.90;;;;;;5072431;28;20035;-83
2023/06/06 05:23:46;;;;;;;7.30;4.70;;;12.90;99.90;;;;;;5062586;28;20044;-82
2023/06/06 05:26:11;;;;;;;5.97;3.78;;;12.90;99.90;;;;;;5073919;28;20024;-82
2023/06/06 05:28:38;;;;;;;8.63;4.78;;;12.90;99.90;;;;;;5060683;28;20016;-83
2023/06/06 05:31:07;;;;;;;5.75;4.00;;;13.00;99.90;;;;;;5074824;28;20040;-83
2023/06/06 05:33:33;;;;;;;9.18;4.13;;;13.10;99.90;;;;;;5065658;28;20043;-82
2023/06/06 05:35:59;;;;;;;9.15;4.38;;;13.10;99.90;;;;;;5057270;28;20032;-83
2023/06/06 05:38:25;;;;;;;6.95;3.90;;;13.20;99.90;;;;;;5063729;28;20486;-83
2023/06/06 05:40:51;;;;;;;7.75;5.10;;;13.30;99.90;;;;;;5063989;28;20051;-83
2023/06/06 05:43:16;;;;;;;6.88;4.43;;;13.30;99.90;;;;;;5074844;28;20548;-83
2023/06/06 05:45:42;;;;;;;6.03;4.13;;;13.40;99.90;;;;;;5058309;28;20520;-83
2023/06/06 05:48:08;;;;;;;7.57;4.95;;;13.40;99.90;;;;;;5073900;28;20042;-83
2023/06/06 05:50:33;;;;;;;7.00;4.53;;;13.50;99.90;;;;;;5058750;28;20131;-83
2023/06/06 05:52:59;;;;;;;7.10;4.70;;;13.50;99.90;;;;;;5060350;28;20025;-84
2023/06/06 05:55:35;;;;;;;7.93;3.97;;;13.50;99.90;;;;;;5061159;28;20032;-84
2023/06/06 05:58:01;;;;;;;7.18;3.97;;;13.50;99.90;;;;;;5061402;28;20078;-83
2023/06/06 06:00:29;;;;;;;7.40;4.18;;;13.60;99.90;;;;;;5058986;28;20028;-84
2023/06/06 06:02:58;;;;;;;6.72;4.25;;;13.60;99.90;;;;;;5075932;28;20040;-84
2023/06/06 06:05:28;;;;;;;6.18;3.65;;;13.70;99.90;;;;;;5058679;28;20024;-84
2023/06/06 06:08:00;;;;;;;7.10;4.20;;;13.70;99.90;;;;;;5076251;28;20021;-83
2023/06/06 06:10:27;;;;;;;5.90;3.53;;;13.80;99.90;;;;;;5066357;28;20021;-84
2023/06/06 06:12:53;;;;;;;6.60;3.47;;;13.80;99.90;;;;;;5064473;28;20055;-84
2023/06/06 06:15:18;;;;;;;6.07;3.90;;;13.90;99.90;;;;;;5074754;28;20107;-84
2023/06/06 06:17:44;;;;;;;6.93;3.70;;;14.00;99.90;;;;;;5074344;28;20040;-82
2023/06/06 06:20:10;;;;;;;7.18;4.00;;;14.00;99.90;;;;;;5074875;28;20120;-83
2023/06/06 06:22:37;;;;;;;5.30;3.40;;;14.10;99.90;;;;;;5075052;28;20056;-83
2023/06/06 06:25:04;;;;;;;7.07;3.90;;;14.20;99.90;;;;;;5066750;28;20482;-83
2023/06/06 06:27:31;;;;;;;7.72;3.80;;;14.20;99.90;;;;;;5077362;28;20150;-83
2023/06/06 06:29:57;;;;;;;6.38;3.75;;;14.20;99.90;;;;;;5074056;28;20036;-84
2023/06/06 06:32:23;;;;;;;5.95;3.78;;;14.30;99.90;;;;;;5074838;28;20035;-85
2023/06/06 06:34:49;;;;;;;7.32;4.47;;;14.40;99.90;;;;;;5074129;28;20039;-84
2023/06/06 06:37:18;;;;;;;5.90;3.70;;;14.40;99.90;;;;;;5060912;28;20036;-84
2023/06/06 06:39:45;;;;;;;6.60;4.00;;;14.40;99.90;;;;;;5076091;28;20035;-85
2023/06/06 06:42:11;;;;;;;8.02;4.80;;;14.50;99.90;;;;;;5061607;28;20047;-84
2023/06/06 06:44:36;;;;;;;6.05;3.88;;;14.50;99.90;;;;;;5064597;28;20107;-83
2023/06/06 06:47:03;;;;;;;6.55;4.10;;;14.50;99.90;;;;;;5059145;28;20044;-85
2023/06/06 06:49:29;;;;;;;6.07;3.70;;;14.60;99.90;;;;;;5074787;28;20025;-84
2023/06/06 06:51:56;;;;;;;5.78;3.65;;;14.60;99.90;;;;;;5058931;28;20108;-85
2023/06/06 06:54:22;;;;;;;4.57;3.20;;;14.60;99.90;;;;;;5065130;28;20024;-81
2023/06/06 06:56:48;;;;;;;4.32;3.05;;;14.70;99.90;;;;;;5065529;28;20485;-82
2023/06/06 06:59:14;;;;;;;4.72;3.10;;;14.80;99.90;;;;;;5073703;28;20024;-81
2023/06/06 07:01:40;;;;;;;5.82;3.55;;;14.90;99.90;;;;;;5064884;28;20035;-83
2023/06/06 07:04:08;;;;;;;5.68;3.63;;;14.90;99.90;;;;;;5074185;28;20044;-84
2023/06/06 07:06:34;;;;;;;6.25;3.65;;;15.00;99.90;;;;;;5076136;28;20504;-83
2023/06/06 07:09:06;;;;;;;5.35;3.42;;;15.00;99.90;;;;;;5075600;28;20195;-83
2023/06/06 07:11:32;;;;;;;5.38;2.72;;;15.10;99.90;;;;;;5060817;28;20016;-85
2023/06/06 07:13:57;;;;;;;4.47;2.90;;;15.10;99.90;;;;;;5058848;28;20035;-84
2023/06/06 07:16:25;;;;;;;5.10;3.05;;;15.20;99.90;;;;;;5075648;28;20028;-84
2023/06/06 07:18:52;;;;;;;6.13;3.40;;;15.30;99.90;;;;;;5063230;28;20458;-85
2023/06/06 07:21:21;;;;;;;5.78;4.07;;;15.30;99.90;;;;;;5076341;28;20024;-84
2023/06/06 07:23:50;;;;;;;6.00;3.35;;;15.40;99.90;;;;;;5063725;28;20105;-85
2023/06/06 07:26:17;;;;;;;5.20;3.55;;;15.40;99.90;;;;;;5059847;28;20859;-86
2023/06/06 07:28:43;;;;;;;7.07;3.55;;;15.50;99.90;;;;;;5059107;28;20051;-85
2023/06/06 07:31:10;;;;;;;5.53;3.42;;;15.50;99.90;;;;;;5057886;28;20090;-85
2023/06/06 07:33:36;;;;;;;5.13;3.50;;;15.60;99.90;;;;;;5067633;28;20039;-85
2023/06/06 07:36:03;;;;;;;5.63;3.05;;;15.60;99.90;;;;;;5063637;28;20016;-83
2023/06/06 07:38:28;;;;;;;4.47;2.92;;;15.70;99.90;;;;;;5064202;28;20040;-84
2023/06/06 07:40:54;;;;;;;7.35;3.67;;;15.70;99.90;;;;;;5075848;28;20028;-85
2023/06/06 07:43:19;;;;;;;5.43;3.60;;;15.80;99.90;;;;;;5058502;28;20040;-86
2023/06/06 07:45:45;;;;;;;6.70;3.88;;;15.80;99.90;;;;;;5065261;28;20024;-83
2023/06/06 07:48:12;;;;;;;5.95;3.67;;;15.80;99.90;;;;;;5073661;28;20035;-84
2023/06/06 07:50:38;;;;;;;6.38;3.40;;;15.90;99.90;;;;;;5059178;28;20497;-84
2023/06/06 07:53:03;;;;;;;7.75;4.10;;;16.00;99.90;;;;;;5072874;28;20039;-85
2023/06/06 07:55:31;;;;;;;7.05;3.60;;;16.10;99.90;;;;;;5075808;28;20051;-85
2023/06/06 07:57:57;;;;;;;6.38;3.42;;;16.20;99.90;;;;;;5072607;28;20824;-84
2023/06/06 08:00:23;;;;;;;4.88;3.10;;;16.20;99.90;;;;;;5058037;28;20023;-83
2023/06/06 08:02:48;;;;;;;7.35;3.50;;;16.30;99.90;;;;;;5073454;28;20382;-84
2023/06/06 08:05:14;;;;;;;4.53;2.97;;;16.30;99.90;;;;;;5074069;28;20030;-85
2023/06/06 08:07:39;;;;;;;7.05;3.80;;;16.40;99.90;;;;;;5073284;28;20050;-84
2023/06/06 08:10:06;;;;;;;7.53;3.95;;;16.50;99.90;;;;;;5075522;28;20445;-83
2023/06/06 08:12:32;;;;;;;6.53;3.20;;;16.50;99.90;;;;;;5062318;28;20024;-84
2023/06/06 08:14:58;;;;;;;5.47;3.40;;;16.60;99.90;;;;;;5072823;28;20046;-83
2023/06/06 08:17:24;;;;;;;7.47;3.50;;;16.70;99.90;;;;;;5057743;28;20040;-84
2023/06/06 08:19:49;;;;;;;4.95;2.97;;;16.80;99.90;;;;;;5073638;28;20042;-85
2023/06/06 08:22:15;;;;;;;6.55;3.25;;;16.90;99.90;;;;;;5073395;28;20146;-84
2023/06/06 08:24:41;;;;;;;6.63;3.30;;;17.00;99.90;;;;;;5060495;28;20101;-85
2023/06/06 08:27:07;;;;;;;5.80;3.55;;;17.10;99.90;;;;;;5072940;28;20170;-84
2023/06/06 08:29:33;;;;;;;5.97;3.10;;;17.20;99.90;;;;;;5063231;28;20111;-81
2023/06/06 08:32:01;;;;;;;5.72;3.55;;;17.30;99.90;;;;;;5059306;28;20032;-82
2023/06/06 08:34:30;;;;;;;6.15;3.47;;;17.40;99.90;;;;;;5062555;28;20470;-84
2023/06/06 08:36:56;;;;;;;6.90;3.20;;;17.50;99.90;;;;;;5058555;28;20033;-84
2023/06/06 08:39:22;;;;;;;6.30;3.20;;;17.60;99.90;;;;;;5063503;28;20793;-82
2023/06/06 08:41:52;;;;;;;5.88;3.47;;;17.60;99.90;;;;;;5071642;28;20035;-85
2023/06/06 08:44:20;;;;;;;5.28;2.67;;;17.70;99.90;;;;;;5062881;28;20028;-83
2023/06/06 08:46:51;;;;;;;5.32;2.70;;;17.80;99.90;;;;;;5072794;28;20078;-85
2023/06/06 08:49:18;;;;;;;4.18;2.80;;;17.90;99.90;;;;;;5063894;28;20020;-85
2023/06/06 08:51:45;;;;;;;5.68;2.95;;;18.10;99.90;;;;;;5073424;28;20029;-84
2023/06/06 08:54:11;;;;;;;6.20;3.45;;;18.20;99.90;;;;;;5072775;28;20024;-84
2023/06/06 08:56:41;;;;;;;6.78;3.40;;;18.20;99.90;;;;;;5063218;28;20406;-84
2023/06/06 08:59:07;;;;;;;6.18;3.00;;;18.40;99.90;;;;;;5057187;28;20067;-84
2023/06/06 09:01:35;;;;;;;6.07;3.03;;;18.40;99.90;;;;;;5055499;28;20446;-84
2023/06/06 09:04:01;;;;;;;6.07;3.17;;;18.50;99.90;;;;;;5056496;28;22375;-85
2023/06/06 09:06:27;;;;;;;6.03;3.20;;;18.70;99.90;;;;;;5062853;28;20025;-85
2023/06/06 09:08:54;;;;;;;5.93;3.33;;;18.70;99.90;;;;;;5062808;28;20024;-84
2023/06/06 09:11:21;;;;;;;6.57;3.67;;;18.80;99.90;;;;;;5056545;28;20090;-84
2023/06/06 09:13:47;;;;;;;6.10;3.15;;;18.90;99.90;;;;;;5063363;28;20032;-84
2023/06/06 09:16:14;;;;;;;5.65;2.97;;;19.10;99.90;;;;;;5062015;28;20047;-84
2023/06/06 09:18:41;;;;;;;4.88;3.10;;;19.20;99.90;;;;;;5071767;28;20407;-84
2023/06/06 09:21:07;;;;;;;5.63;3.22;;;19.40;99.90;;;;;;5064164;28;20020;-84
2023/06/06 09:23:33;;;;;;;6.72;3.83;;;19.60;99.90;;;;;;5073976;28;20036;-85
2023/06/06 09:25:59;;;;;;;4.50;3.05;;;19.70;99.90;;;;;;5060535;28;20103;-85
2023/06/06 09:28:39;;;;;;;5.72;3.20;;;19.80;99.90;;;;;;5058012;28;20033;-84
2023/06/06 09:31:34;;;;;;;4.47;2.88;;;20.10;99.90;;;;;;5065737;28;20031;-85
2023/06/06 09:34:00;;;;;;;3.83;2.20;;;21.00;99.90;;;;;;5057967;28;20062;-85
2023/06/06 09:36:28;;;;;;;5.35;2.60;;;22.20;99.90;;;;;;5074489;28;20039;-84
2023/06/06 09:39:04;;;;;;;4.78;2.83;;;23.40;99.30;;;;;;5073433;28;20131;-85
2023/06/06 09:41:29;;;;;;;4.88;2.50;;;24.30;98.10;;;;;;5056823;28;20029;-85
2023/06/06 09:43:55;;;;;;;4.60;2.50;;;25.00;97.20;;;;;;5065061;28;20020;-86
2023/06/06 09:46:20;;;;;;;4.22;2.28;;;25.50;96.70;;;;;;5072014;28;20094;-85
2023/06/06 09:48:56;;;;;;;4.07;2.15;;;26.00;96.10;;;;;;5071746;28;20085;-85
2023/06/06 09:51:22;;;;;;;4.10;2.22;;;26.50;95.80;;;;;;5072701;28;20047;-86
2023/06/06 09:53:51;;;;;;;3.80;2.20;;;26.80;95.20;;;;;;5063725;28;20146;-86
2023/06/06 09:56:22;;;;;;;3.70;2.05;;;27.20;94.70;;;;;;5076565;28;22337;-85
2023/06/06 09:58:55;;;;;;;5.32;2.42;;;27.50;94.40;;;;;;5075761;28;20032;-85
2023/06/06 10:01:31;;;;;;;3.83;2.05;;;27.90;94.00;;;;;;5076481;28;20038;-85
2023/06/06 10:03:57;;;;;;;3.63;2.22;;;28.30;93.50;;;;;;5075035;28;20416;-86
2023/06/06 10:06:28;;;;;;;4.05;2.28;;;28.50;93.00;;;;;;5060873;28;20077;-85
2023/06/06 10:08:54;;;;;;;4.80;2.20;;;28.80;92.70;;;;;;5065878;28;20448;-85
2023/06/06 10:11:21;;;;;;;4.38;2.30;;;28.90;92.30;;;;;;5075631;28;20107;-87
2023/06/06 10:13:48;;;;;;;3.30;1.80;;;29.10;91.90;;;;;;5064368;28;20036;-88
2023/06/06 10:16:16;;;;;;;3.33;1.90;;;29.30;91.60;;;;;;5065623;28;20036;-84
2023/06/06 10:18:45;;;;;;;4.70;2.20;;;29.60;91.30;;;;;;5064072;28;20032;-85
2023/06/06 10:21:12;;;;;;;2.85;1.77;;;29.80;90.90;;;;;;5060968;28;20038;-85
2023/06/06 10:23:37;;;;;;;5.50;2.47;;;30.10;90.60;;;;;;5064455;28;20129;-86
2023/06/06 10:26:05;;;;;;;4.63;1.98;;;30.30;90.20;;;;;;5064959;28;20485;-85
2023/06/06 10:28:35;;;;;;;3.40;2.03;;;30.40;89.80;;;;;;5075014;28;20082;-86
2023/06/06 10:31:11;;;;;;;3.35;1.80;;;30.60;89.00;;;;;;5059368;28;20493;-85
2023/06/06 10:33:44;;;;;;;3.83;1.58;;;30.80;88.50;;;;;;5064239;28;20039;-86
2023/06/06 10:36:17;;;;;;;3.40;1.90;;;31.10;87.90;;;;;;5074756;28;20035;-86
2023/06/06 10:39:20;;;;;;;4.03;1.85;;;31.20;86.90;;;;;;5064168;28;20040;-85
2023/06/06 10:42:05;;;;;;;;;;;31.30;86.30;;;;;;5075152;28;20032;-85
2023/06/06 10:44:46;;;;;;;2.45;1.63;;;31.20;86.40;;;;;;5075310;28;19962;-86
2023/06/06 10:47:20;;;;;;;7.60;2.30;;;31.60;85.80;;;;;;5075757;28;20035;-83
2023/06/06 10:50:09;;;;;;;3.53;2.00;;;31.80;84.80;;;;;;5073892;28;20032;-81
2023/06/06 10:52:49;;;;;;;3.10;1.73;;;31.90;84.20;;;;;;5061250;28;20027;-81
2023/06/06 10:55:17;;;;;;;2.85;1.98;;;31.90;83.30;;;;;;5059553;28;20032;-81
2023/06/06 10:57:53;;;;;;;3.47;2.05;;;31.90;82.90;;;;;;5064473;28;20131;-84
2023/06/06 11:00:25;;;;;;;2.33;1.75;;;31.90;82.00;;;;;;5059587;28;20046;-83
2023/06/06 11:02:55;;;;;;;2.95;1.83;;;31.90;82.00;;;;;;5073978;28;20032;-86
2023/06/06 11:05:22;;;;;;;4.03;1.80;;;32.00;81.80;;;;;;5058938;28;20479;-84
2023/06/06 11:07:51;;;;;;;4.28;1.83;;;32.20;81.60;;;;;;5064238;28;20036;-84
2023/06/06 11:10:21;;;;;;;4.88;2.20;;;32.40;81.20;;;;;;5073175;28;20031;-84
2023/06/06 11:12:49;;;;;;;3.33;1.90;;;32.50;80.90;;;;;;5074329;28;20123;-86
2023/06/06 11:15:27;;;;;;;5.03;1.88;;;32.60;81.10;;;;;;5062737;28;20047;-84
2023/06/06 11:18:01;;;;;;;4.10;2.00;;;32.80;80.60;;;;;;5074808;28;20085;-84
2023/06/06 11:20:27;;;;;;;5.35;2.10;;;32.90;79.70;;;;;;5060156;28;20437;-84
2023/06/06 11:23:02;;;;;;;3.35;1.77;;;33.00;79.60;;;;;;5059515;28;20062;-85
2023/06/06 11:25:30;;;;;;;4.97;2.35;;;33.00;78.80;;;;;;5064398;28;20066;-84
2023/06/06 11:27:56;;;;;;;3.47;2.20;;;33.00;78.60;;;;;;5059084;28;20029;-85
2023/06/06 11:30:23;;;;;;;3.55;2.10;;;33.00;78.20;;;;;;5074518;28;20539;-85
2023/06/06 11:32:52;;;;;;;4.28;1.85;;;33.00;77.90;;;;;;5074135;28;20094;-86
2023/06/06 11:35:18;;;;;;;4.35;2.10;;;33.00;77.30;;;;;;5075607;28;20028;-85
2023/06/06 11:37:44;;;;;;;3.30;1.80;;;33.10;77.20;;;;;;5063871;28;20044;-85
2023/06/06 11:40:11;;;;;;;2.78;1.67;;;33.20;76.80;;;;;;5072204;28;20036;-84
2023/06/06 11:42:42;;;;;;;2.78;1.65;;;33.30;76.90;;;;;;5058788;28;20028;-84
2023/06/06 11:45:26;;;;;;;4.10;1.90;;;33.50;76.80;;;;;;5057845;28;20065;-83
2023/06/06 11:47:52;;;;;;;4.50;2.20;;;33.50;76.10;;;;;;5067222;28;20017;-85
2023/06/06 11:50:28;;;;;;;5.75;2.35;;;33.60;76.00;;;;;;5061047;28;20089;-81
2023/06/06 11:52:53;;;;;;;2.97;1.77;;;33.60;75.20;;;;;;5059330;28;20024;-81
2023/06/06 11:55:19;;;;;;;5.07;1.92;;;33.60;75.30;;;;;;5073679;28;20035;-84
2023/06/06 11:57:44;;;;;;;5.25;1.98;;;33.80;75.20;;;;;;5058282;28;20502;-85
2023/06/06 12:00:18;;;;;;;3.05;2.00;;;34.00;74.80;;;;;;5063407;28;20497;-84
2023/06/06 12:02:49;;;;;;;2.95;1.83;;;34.00;74.00;;;;;;5062591;28;20036;-84
2023/06/06 12:05:20;;;;;;;3.78;1.75;;;33.80;73.60;;;;;;5074595;28;20020;-85
2023/06/06 12:07:47;;;;;;;3.95;2.05;;;33.80;73.20;;;;;;5065579;28;20028;-84
2023/06/06 12:10:25;;;;;;;3.70;2.05;;;33.80;73.10;;;;;;5072981;28;20458;-84
2023/06/06 12:12:51;;;;;;;4.20;1.80;;;34.00;73.10;;;;;;5073530;28;20058;-84
2023/06/06 12:15:17;;;;;;;4.40;2.15;;;34.20;73.50;;;;;;5062224;28;20032;-84
2023/06/06 12:17:42;;;;;;;3.22;1.95;;;34.50;73.30;;;;;;5056564;28;20044;-84
2023/06/06 12:20:10;;;;;;;3.40;2.15;;;34.60;72.60;;;;;;5074390;28;20051;-85
2023/06/06 12:22:35;;;;;;;5.40;2.05;;;34.50;72.00;;;;;;5063817;28;20064;-84
2023/06/06 12:25:03;;;;;;;5.55;2.38;;;34.30;72.00;;;;;;5073271;28;20020;-84
2023/06/06 12:27:33;;;;;;;3.85;2.17;;;34.30;71.90;;;;;;5074386;28;20574;-84
2023/06/06 12:30:00;;;;;;;5.15;2.05;;;34.40;71.30;;;;;;5072939;28;20043;-83
2023/06/06 12:32:29;;;;;;;5.18;2.28;;;34.50;71.50;;;;;;5073743;28;20027;-83
2023/06/06 12:35:05;;;;;;;3.92;2.13;;;34.70;71.60;;;;;;5058243;28;20035;-83
2023/06/06 12:37:41;;;;;;;3.97;2.03;;;34.90;71.20;;;;;;5059289;28;20037;-84
2023/06/06 12:40:23;;;;;;;4.78;1.90;;;35.00;71.10;;;;;;5058545;28;20105;-84
2023/06/06 12:42:51;;;;;;;2.22;1.63;;;35.20;70.80;;;;;;5073344;28;20042;-83
2023/06/06 12:45:18;;;;;;;3.70;2.05;;;35.40;70.50;;;;;;5072583;28;20029;-84
2023/06/06 12:47:43;;;;;;;4.72;2.33;;;35.50;70.20;;;;;;5072749;28;20097;-84
2023/06/06 12:50:09;;;;;;;4.05;1.95;;;35.60;69.90;;;;;;5074206;28;20036;-84
2023/06/06 12:52:35;;;;;;;3.22;2.15;;;35.70;69.70;;;;;;5073557;28;20028;-84